createdAt,value
2023-09-22T00:00:49.969Z,3.62
2023-09-22T00:04:14.783Z,3.85
2023-09-22T00:07:39.922Z,3.23
2023-09-22T00:11:04.960Z,3.42
2023-09-22T00:14:30.231Z,2.90
2023-09-22T00:17:56.595Z,3.28
2023-09-22T00:21:21.175Z,3.03
2023-09-22T00:24:46.687Z,3.33
2023-09-22T00:28:11.688Z,3.33
2023-09-22T00:31:36.788Z,3.35
2023-09-22T00:35:05.315Z,4.73
2023-09-22T00:38:31.685Z,4.45
2023-09-22T00:41:57.873Z,5.00
2023-09-22T00:45:23.182Z,5.18
2023-09-22T00:48:46.808Z,4.90
2023-09-22T00:52:12.533Z,5.00
2023-09-22T00:55:38.310Z,5.20
2023-09-22T00:59:02.701Z,5.60
2023-09-22T01:02:27.720Z,5.53
2023-09-22T01:05:52.319Z,5.80
2023-09-22T01:09:18.309Z,4.97
2023-09-22T01:12:42.426Z,4.87
2023-09-22T01:16:07.879Z,5.30
2023-09-22T01:19:33.966Z,5.57
2023-09-22T01:23:00.442Z,5.15
2023-09-22T01:26:25.120Z,4.62
2023-09-22T01:29:49.810Z,6.18
2023-09-22T01:33:14.182Z,6.07
2023-09-22T01:36:38.515Z,5.22
2023-09-22T01:40:04.665Z,6.32
2023-09-22T01:43:29.628Z,5.40
2023-09-22T01:46:54.041Z,6.10
2023-09-22T01:50:17.901Z,6.80
2023-09-22T01:53:42.563Z,6.05
2023-09-22T01:57:08.024Z,5.93
2023-09-22T02:00:32.872Z,5.05
2023-09-22T02:03:57.469Z,5.67
2023-09-22T02:07:20.996Z,6.20
2023-09-22T02:10:45.438Z,6.57
2023-09-22T02:14:12.030Z,7.22
2023-09-22T02:17:36.438Z,6.43
2023-09-22T02:21:01.836Z,6.93
2023-09-22T02:24:25.602Z,6.97
2023-09-22T02:27:50.563Z,8.00
2023-09-22T02:31:15.888Z,7.80
2023-09-22T02:34:40.891Z,6.83
2023-09-22T02:38:05.947Z,6.80
2023-09-22T02:41:30.644Z,7.70
2023-09-22T02:44:54.291Z,7.70
2023-09-22T02:48:19.685Z,8.25
2023-09-22T02:51:43.973Z,7.73
2023-09-22T02:55:09.955Z,7.53
2023-09-22T02:58:34.031Z,7.15
2023-09-22T03:01:59.087Z,7.97
2023-09-22T03:05:24.313Z,8.27
2023-09-22T03:08:49.038Z,7.72
2023-09-22T03:12:12.632Z,8.77
2023-09-22T03:15:37.691Z,7.55
2023-09-22T03:19:01.598Z,7.90
2023-09-22T03:22:27.242Z,8.55
2023-09-22T03:25:51.990Z,7.97
2023-09-22T03:29:16.203Z,7.65
2023-09-22T03:32:41.822Z,8.20
2023-09-22T03:36:07.061Z,8.25
2023-09-22T03:39:34.058Z,8.82
2023-09-22T03:42:58.543Z,8.00
2023-09-22T03:46:22.510Z,8.10
2023-09-22T03:49:46.364Z,8.27
2023-09-22T03:53:10.186Z,8.98
2023-09-22T03:56:39.043Z,8.68
2023-09-22T04:00:03.309Z,8.90
2023-09-22T04:03:37.632Z,8.60
2023-09-22T04:07:02.550Z,8.35
2023-09-22T04:10:26.340Z,8.05
2023-09-22T04:13:52.441Z,9.15
2023-09-22T04:17:16.362Z,8.53
2023-09-22T04:20:45.705Z,8.70
2023-09-22T04:24:09.561Z,9.02
2023-09-22T04:27:44.234Z,9.07
2023-09-22T04:31:13.223Z,9.30
2023-09-22T04:34:38.373Z,9.77
2023-09-22T04:38:02.992Z,9.88
2023-09-22T04:41:28.920Z,10.02
2023-09-22T04:44:53.575Z,9.53
2023-09-22T04:48:19.925Z,9.50
2023-09-22T04:51:43.743Z,8.50
2023-09-22T04:55:08.227Z,9.18
2023-09-22T04:58:32.011Z,9.20
2023-09-22T05:01:56.433Z,9.15
2023-09-22T05:05:23.711Z,8.30
2023-09-22T05:08:47.939Z,9.13
2023-09-22T05:12:12.434Z,9.10
2023-09-22T05:15:36.995Z,9.27
2023-09-22T05:19:01.606Z,9.85
2023-09-22T05:22:27.558Z,10.15
2023-09-22T05:25:52.054Z,10.18
2023-09-22T05:29:17.266Z,10.17
2023-09-22T05:32:42.414Z,9.98
2023-09-22T05:36:07.253Z,9.52
2023-09-22T05:39:33.429Z,9.13
2023-09-22T05:42:57.977Z,10.40
2023-09-22T05:46:21.749Z,9.57
2023-09-22T05:49:45.833Z,9.65
2023-09-22T05:53:09.650Z,9.98
2023-09-22T05:56:36.492Z,9.20
2023-09-22T06:00:01.087Z,9.00
2023-09-22T06:03:26.246Z,8.82
2023-09-22T06:06:52.313Z,8.40
2023-09-22T06:10:16.352Z,9.20
2023-09-22T06:13:41.834Z,8.50
2023-09-22T06:17:05.981Z,8.95
2023-09-22T06:20:30.013Z,8.65
2023-09-22T06:23:53.887Z,7.93
2023-09-22T06:27:17.874Z,7.50
2023-09-22T06:30:43.301Z,8.90
2023-09-22T06:34:08.936Z,8.80
2023-09-22T06:37:33.018Z,9.43
2023-09-22T06:40:57.698Z,8.57
2023-09-22T06:44:21.890Z,8.70
2023-09-22T06:47:47.733Z,8.93
2023-09-22T06:51:16.697Z,8.85
2023-09-22T06:54:41.058Z,8.38
2023-09-22T06:58:07.709Z,7.47
2023-09-22T07:01:31.916Z,9.27
2023-09-22T07:04:58.014Z,9.15
2023-09-22T07:08:22.247Z,8.30
2023-09-22T07:11:46.124Z,9.02
2023-09-22T07:15:10.520Z,8.40
2023-09-22T07:18:34.444Z,8.90
2023-09-22T07:22:00.218Z,8.98
2023-09-22T07:25:27.895Z,9.68
2023-09-22T07:28:51.126Z,9.98
2023-09-22T07:32:15.953Z,9.30
2023-09-22T07:35:39.940Z,8.60
2023-09-22T07:39:05.972Z,8.98
2023-09-22T07:42:33.399Z,8.32
2023-09-22T07:45:57.284Z,8.05
2023-09-22T07:49:21.796Z,7.93
2023-09-22T07:52:47.029Z,8.52
2023-09-22T07:56:13.838Z,7.62
2023-09-22T07:59:36.786Z,8.45
2023-09-22T08:03:01.489Z,7.73
2023-09-22T08:06:25.578Z,7.45
2023-09-22T08:09:48.668Z,9.05
2023-09-22T08:13:13.159Z,8.32
2023-09-22T08:16:36.608Z,7.60
2023-09-22T08:20:00.267Z,6.47
2023-09-22T08:23:31.152Z,7.03
2023-09-22T08:27:01.669Z,7.47
2023-09-22T08:30:26.537Z,6.60
2023-09-22T08:33:49.881Z,6.80
2023-09-22T08:37:12.679Z,6.87
2023-09-22T08:40:38.236Z,6.62
2023-09-22T08:44:03.342Z,7.32
2023-09-22T08:47:28.277Z,6.60
2023-09-22T08:50:52.606Z,8.15
2023-09-22T08:54:16.721Z,7.53
2023-09-22T08:57:41.264Z,7.10
2023-09-22T09:01:05.603Z,7.30
2023-09-22T09:04:35.252Z,5.72
2023-09-22T09:08:13.008Z,6.03
2023-09-22T09:11:37.333Z,7.53
2023-09-22T09:15:02.213Z,6.78
2023-09-22T09:18:26.558Z,7.00
2023-09-22T09:22:09.722Z,6.95
2023-09-22T09:25:33.842Z,6.60
2023-09-22T09:28:58.129Z,7.30
2023-09-22T09:32:26.536Z,7.50
2023-09-22T09:35:51.976Z,7.32
2023-09-22T09:39:19.713Z,7.90
2023-09-22T09:42:44.117Z,7.57
2023-09-22T09:46:10.158Z,8.05
2023-09-22T09:49:34.359Z,3.80
2023-09-22T09:52:58.302Z,2.95
2023-09-22T09:56:35.703Z,3.70
2023-09-22T09:59:59.921Z,3.60
2023-09-22T10:03:24.507Z,3.00
2023-09-22T10:06:52.251Z,3.55
2023-09-22T10:10:17.621Z,3.40
2023-09-22T10:13:45.199Z,2.60
2023-09-22T10:17:21.424Z,3.70
2023-09-22T10:20:47.475Z,2.97
2023-09-22T10:24:35.033Z,2.63
2023-09-22T10:28:03.499Z,3.30
2023-09-22T10:31:31.406Z,3.15
2023-09-22T10:34:56.279Z,4.40
2023-09-22T10:38:22.063Z,3.45
2023-09-22T10:42:01.055Z,3.03
2023-09-22T10:45:26.731Z,5.32
2023-09-22T10:48:52.814Z,7.72
2023-09-22T10:52:18.849Z,8.60
2023-09-22T10:55:44.419Z,11.98
2023-09-22T10:59:09.326Z,18.62
2023-09-22T11:02:35.408Z,17.17
2023-09-22T11:06:00.570Z,20.05
2023-09-22T11:09:35.642Z,16.90
2023-09-22T11:12:58.902Z,15.70
2023-09-22T11:16:22.884Z,20.37
2023-09-22T11:19:53.227Z,17.40
2023-09-22T11:23:17.860Z,19.62
2023-09-22T11:26:44.016Z,25.30
2023-09-22T11:30:15.575Z,18.02
2023-09-22T11:33:38.907Z,22.58
2023-09-22T11:37:02.137Z,23.17
2023-09-22T11:40:29.494Z,20.17
2023-09-22T11:43:53.397Z,6.57
2023-09-22T11:47:24.323Z,5.30
2023-09-22T11:50:56.499Z,5.40
2023-09-22T11:54:21.127Z,5.90
2023-09-22T11:57:47.795Z,5.80
2023-09-22T12:01:12.465Z,5.65
2023-09-22T12:04:40.525Z,6.37
2023-09-22T12:08:05.772Z,7.65
2023-09-22T12:11:29.649Z,7.00
2023-09-22T12:14:54.051Z,6.20
2023-09-22T12:18:17.718Z,8.48
2023-09-22T12:21:40.725Z,5.25
2023-09-22T12:25:03.599Z,5.00
2023-09-22T12:28:26.343Z,5.00
2023-09-22T12:31:50.983Z,5.97
2023-09-22T12:35:14.304Z,5.00
2023-09-22T12:38:38.622Z,4.80
2023-09-22T12:42:04.354Z,5.62
2023-09-22T12:45:30.494Z,4.60
2023-09-22T12:48:56.748Z,4.80
2023-09-22T12:52:21.903Z,4.43
2023-09-22T12:55:45.969Z,5.85
2023-09-22T12:59:10.641Z,5.00
2023-09-22T13:02:35.373Z,4.82
2023-09-22T13:06:04.461Z,5.30
2023-09-22T13:09:29.968Z,4.72
2023-09-22T13:12:54.966Z,5.20
2023-09-22T13:16:22.685Z,4.85
2023-09-22T13:19:47.757Z,5.12
2023-09-22T13:23:13.299Z,4.95
2023-09-22T13:26:37.998Z,5.37
2023-09-22T13:30:02.097Z,5.22
2023-09-22T13:33:27.757Z,5.93
2023-09-22T13:36:52.102Z,5.60
2023-09-22T13:40:19.331Z,5.80
2023-09-22T13:43:44.898Z,6.05
2023-09-22T13:47:09.792Z,6.80
2023-09-22T13:50:34.268Z,5.18
2023-09-22T13:53:59.032Z,6.40
2023-09-22T13:57:27.186Z,5.60
2023-09-22T14:00:51.954Z,5.90
2023-09-22T14:04:17.226Z,7.35
2023-09-22T14:07:41.997Z,5.47
2023-09-22T14:11:07.140Z,5.70
2023-09-22T14:14:32.146Z,5.50
2023-09-22T14:17:57.899Z,5.60
2023-09-22T14:21:22.099Z,4.78
2023-09-22T14:24:48.498Z,5.22
2023-09-22T14:28:12.786Z,5.20
2023-09-22T14:31:39.420Z,4.70
2023-09-22T14:35:03.599Z,5.07
2023-09-22T14:38:29.136Z,4.78
2023-09-22T14:41:54.248Z,4.60
2023-09-22T14:45:19.638Z,5.07
2023-09-22T14:48:45.822Z,6.32
2023-09-22T14:52:11.301Z,4.95
2023-09-22T14:55:35.838Z,5.27
2023-09-22T14:59:01.234Z,5.03
2023-09-22T15:02:25.945Z,5.75
2023-09-22T15:05:52.357Z,5.35
2023-09-22T15:09:18.802Z,4.90
2023-09-22T15:12:45.199Z,4.87
2023-09-22T15:16:10.112Z,4.57
2023-09-22T15:19:34.719Z,5.22
2023-09-22T15:23:00.368Z,4.70
2023-09-22T15:26:25.850Z,6.10
2023-09-22T15:29:50.282Z,4.85
2023-09-22T15:33:16.207Z,3.97
2023-09-22T15:36:40.494Z,4.77
2023-09-22T15:40:09.274Z,4.82
2023-09-22T15:43:34.883Z,3.87
2023-09-22T15:47:01.776Z,3.67
2023-09-22T15:50:29.201Z,4.03
2023-09-22T15:53:56.877Z,4.43
2023-09-22T15:57:24.460Z,4.22
2023-09-22T16:00:49.444Z,4.47
2023-09-22T16:04:16.246Z,4.23
2023-09-22T16:07:41.423Z,4.37
2023-09-22T16:11:10.075Z,4.50
2023-09-22T16:14:38.091Z,4.68
2023-09-22T16:18:04.381Z,4.47
2023-09-22T16:21:29.080Z,4.75
2023-09-22T16:24:54.931Z,4.50
2023-09-22T16:28:21.892Z,4.78
2023-09-22T16:31:49.972Z,4.68
2023-09-22T16:35:15.582Z,4.50
2023-09-22T16:38:42.763Z,5.95
2023-09-22T16:42:08.184Z,9.10
2023-09-22T16:45:34.774Z,4.68
2023-09-22T16:49:03.768Z,5.00
2023-09-22T16:52:31.304Z,4.28
2023-09-22T16:55:57.475Z,3.87
2023-09-22T16:59:26.527Z,4.05
2023-09-22T17:02:52.466Z,4.90
2023-09-22T17:06:20.278Z,4.30
2023-09-22T17:09:45.568Z,4.10
2023-09-22T17:13:12.178Z,4.00
2023-09-22T17:16:39.175Z,3.83
2023-09-22T17:20:07.418Z,5.03
2023-09-22T17:23:34.582Z,3.87
2023-09-22T17:27:00.596Z,4.00
2023-09-22T17:30:26.390Z,4.18
2023-09-22T17:33:51.441Z,4.30
2023-09-22T17:37:18.575Z,3.85
2023-09-22T17:40:51.927Z,4.30
2023-09-22T17:44:17.778Z,4.55
2023-09-22T17:47:44.497Z,4.15
2023-09-22T17:51:11.006Z,3.90
2023-09-22T17:54:37.170Z,4.35
2023-09-22T17:58:04.867Z,3.53
2023-09-22T18:01:31.648Z,3.65
2023-09-22T18:04:58.738Z,4.35
2023-09-22T18:08:25.316Z,4.25
2023-09-22T18:11:57.644Z,3.80
2023-09-22T18:15:26.442Z,3.80
2023-09-22T18:18:53.433Z,4.20
2023-09-22T18:22:20.349Z,4.62
2023-09-22T18:25:49.957Z,4.85
2023-09-22T18:29:17.017Z,6.47
2023-09-22T18:32:46.134Z,5.75
2023-09-22T18:36:12.243Z,5.47
2023-09-22T18:39:39.815Z,6.47
2023-09-22T18:43:06.628Z,7.70
2023-09-22T18:46:34.180Z,7.50
2023-09-22T18:50:02.588Z,7.60
2023-09-22T18:53:29.112Z,8.48
2023-09-22T18:56:56.453Z,8.20
2023-09-22T19:00:25.175Z,7.53
2023-09-22T19:03:56.086Z,7.30
2023-09-22T19:07:25.736Z,7.75
2023-09-22T19:10:53.922Z,6.53
2023-09-22T19:14:21.635Z,6.87
2023-09-22T19:17:47.655Z,6.32
2023-09-22T19:21:15.807Z,6.28
2023-09-22T19:24:50.420Z,6.15
2023-09-22T19:28:16.993Z,5.90
2023-09-22T19:31:42.087Z,6.43
2023-09-22T19:35:11.936Z,6.43
2023-09-22T19:38:38.333Z,5.50
2023-09-22T19:42:09.320Z,6.18
2023-09-22T19:45:34.633Z,5.93
2023-09-22T19:49:00.776Z,4.60
2023-09-22T19:52:27.327Z,4.50
2023-09-22T19:55:53.167Z,5.00
2023-09-22T19:59:20.579Z,4.97
2023-09-22T20:02:48.319Z,5.07
2023-09-22T20:06:15.410Z,4.45
2023-09-22T20:09:42.685Z,5.75
2023-09-22T20:13:10.604Z,8.93
2023-09-22T20:16:40.460Z,9.82
2023-09-22T20:20:08.963Z,8.43
2023-09-22T20:23:35.621Z,7.20
2023-09-22T20:27:05.383Z,11.43
2023-09-22T20:30:29.824Z,15.10
2023-09-22T20:33:57.740Z,5.55
2023-09-22T20:37:23.691Z,4.10
2023-09-22T20:40:51.430Z,4.72
2023-09-22T20:44:16.669Z,4.30
2023-09-22T20:47:46.302Z,4.50
2023-09-22T20:51:13.995Z,4.60
2023-09-22T20:54:40.552Z,4.70
2023-09-22T20:58:06.778Z,4.75
2023-09-22T21:01:32.558Z,4.95
2023-09-22T21:04:57.017Z,5.30
2023-09-22T21:08:24.135Z,4.83
2023-09-22T21:11:48.002Z,3.85
2023-09-22T21:15:13.124Z,4.10
2023-09-22T21:18:36.969Z,4.97
2023-09-22T21:22:01.927Z,4.50
2023-09-22T21:25:28.061Z,4.43
2023-09-22T21:28:53.449Z,4.12
2023-09-22T21:32:18.310Z,4.53
2023-09-22T21:35:42.648Z,4.12
2023-09-22T21:39:07.572Z,4.78
2023-09-22T21:42:33.836Z,3.90
2023-09-22T21:45:57.483Z,3.50
2023-09-22T21:49:22.054Z,4.00
2023-09-22T21:52:47.141Z,4.22
2023-09-22T21:56:11.492Z,3.65
2023-09-22T21:59:38.019Z,4.80
2023-09-22T22:03:03.383Z,3.22
2023-09-22T22:06:29.133Z,3.97
2023-09-22T22:09:54.778Z,4.28
2023-09-22T22:13:21.871Z,3.33
2023-09-22T22:16:47.663Z,4.50
2023-09-22T22:20:19.181Z,3.55
2023-09-22T22:23:44.743Z,4.03
2023-09-22T22:27:10.874Z,3.42
2023-09-22T22:30:37.716Z,4.07
2023-09-22T22:34:03.683Z,3.67
2023-09-22T22:37:28.961Z,3.85
2023-09-22T22:40:54.975Z,3.60
2023-09-22T22:44:18.905Z,3.58
2023-09-22T22:47:44.305Z,9.97
2023-09-22T22:51:11.544Z,4.93
2023-09-22T22:54:36.758Z,3.42
2023-09-22T22:58:02.110Z,3.62
2023-09-22T23:01:29.812Z,4.28
2023-09-22T23:04:55.343Z,4.03
2023-09-22T23:08:21.944Z,4.05
2023-09-22T23:11:46.911Z,4.00
2023-09-22T23:15:14.268Z,3.30
2023-09-22T23:18:38.398Z,3.67
2023-09-22T23:22:09.201Z,4.30
2023-09-22T23:25:36.438Z,3.85
2023-09-22T23:29:02.422Z,4.15
2023-09-22T23:32:27.973Z,5.45
2023-09-22T23:35:54.599Z,3.45
2023-09-22T23:39:19.011Z,4.18
2023-09-22T23:42:46.713Z,4.00
2023-09-22T23:46:11.184Z,4.05
2023-09-22T23:49:36.286Z,3.97
2023-09-22T23:53:01.249Z,3.67
2023-09-22T23:56:26.134Z,3.80
2023-09-22T23:59:52.172Z,3.87
